sensor_id;sensor_type;location;lat;lon;timestamp;temperature;humidity
12853;DHT22;6495;51.808;7.478;2023-01-31T00:02:29;4.70;99.90
12853;DHT22;6495;51.808;7.478;2023-01-31T00:04:58;4.70;99.90
12853;DHT22;6495;51.808;7.478;2023-01-31T00:07:26;4.70;99.90
12853;DHT22;6495;51.808;7.478;2023-01-31T00:09:55;4.60;99.90
12853;DHT22;6495;51.808;7.478;2023-01-31T00:12:23;4.70;99.90
12853;DHT22;6495;51.808;7.478;2023-01-31T00:14:51;4.60;99.90
12853;DHT22;6495;51.808;7.478;2023-01-31T00:17:19;4.60;99.90
12853;DHT22;6495;51.808;7.478;2023-01-31T00:19:49;4.60;99.90
12853;DHT22;6495;51.808;7.478;2023-01-31T00:22:17;4.60;99.90
12853;DHT22;6495;51.808;7.478;2023-01-31T00:24:45;4.50;99.90
12853;DHT22;6495;51.808;7.478;2023-01-31T00:27:13;4.50;99.90
12853;DHT22;6495;51.808;7.478;2023-01-31T00:29:41;4.50;99.90
12853;DHT22;6495;51.808;7.478;2023-01-31T00:32:09;4.50;99.90
12853;DHT22;6495;51.808;7.478;2023-01-31T00:34:37;4.50;99.90
12853;DHT22;6495;51.808;7.478;2023-01-31T00:37:07;4.40;99.90
12853;DHT22;6495;51.808;7.478;2023-01-31T00:39:35;4.40;99.90
12853;DHT22;6495;51.808;7.478;2023-01-31T00:42:04;4.40;99.90
12853;DHT22;6495;51.808;7.478;2023-01-31T00:44:32;4.40;99.90
12853;DHT22;6495;51.808;7.478;2023-01-31T00:47:01;4.40;99.90
12853;DHT22;6495;51.808;7.478;2023-01-31T00:49:30;4.40;99.90
12853;DHT22;6495;51.808;7.478;2023-01-31T00:51:58;4.40;99.90
12853;DHT22;6495;51.808;7.478;2023-01-31T00:54:28;4.40;99.90
12853;DHT22;6495;51.808;7.478;2023-01-31T00:56:56;4.30;99.90
12853;DHT22;6495;51.808;7.478;2023-01-31T00:59:26;4.30;99.90
12853;DHT22;6495;51.808;7.478;2023-01-31T01:01:54;4.30;99.90
12853;DHT22;6495;51.808;7.478;2023-01-31T01:04:22;4.30;99.90
12853;DHT22;6495;51.808;7.478;2023-01-31T01:06:50;4.30;99.90
12853;DHT22;6495;51.808;7.478;2023-01-31T01:09:18;4.30;99.90
12853;DHT22;6495;51.808;7.478;2023-01-31T01:11:49;4.30;99.90
12853;DHT22;6495;51.808;7.478;2023-01-31T01:14:18;4.20;99.90
12853;DHT22;6495;51.808;7.478;2023-01-31T01:16:46;4.20;99.90
12853;DHT22;6495;51.808;7.478;2023-01-31T01:19:17;4.20;99.90
12853;DHT22;6495;51.808;7.478;2023-01-31T01:21:46;4.20;99.90
12853;DHT22;6495;51.808;7.478;2023-01-31T01:24:16;4.20;99.90
12853;DHT22;6495;51.808;7.478;2023-01-31T01:26:46;4.10;99.90
12853;DHT22;6495;51.808;7.478;2023-01-31T01:29:15;4.10;99.90
12853;DHT22;6495;51.808;7.478;2023-01-31T01:31:43;4.10;99.90
12853;DHT22;6495;51.808;7.478;2023-01-31T01:34:14;4.10;99.90
12853;DHT22;6495;51.808;7.478;2023-01-31T01:36:44;4.10;99.90
12853;DHT22;6495;51.808;7.478;2023-01-31T01:39:15;4.10;99.90
12853;DHT22;6495;51.808;7.478;2023-01-31T01:41:44;4.10;99.90
12853;DHT22;6495;51.808;7.478;2023-01-31T01:44:43;4.10;99.90
12853;DHT22;6495;51.808;7.478;2023-01-31T01:47:22;4.10;99.90
12853;DHT22;6495;51.808;7.478;2023-01-31T01:50:02;4.00;99.90
12853;DHT22;6495;51.808;7.478;2023-01-31T01:52:39;4.10;99.90
12853;DHT22;6495;51.808;7.478;2023-01-31T01:55:18;4.10;99.90
12853;DHT22;6495;51.808;7.478;2023-01-31T01:57:52;4.00;99.90
12853;DHT22;6495;51.808;7.478;2023-01-31T02:00:28;4.00;99.90
12853;DHT22;6495;51.808;7.478;2023-01-31T02:02:59;4.00;99.90
12853;DHT22;6495;51.808;7.478;2023-01-31T02:05:33;4.00;99.90
12853;DHT22;6495;51.808;7.478;2023-01-31T02:08:04;4.00;99.90
12853;DHT22;6495;51.808;7.478;2023-01-31T02:10:38;4.00;99.90
12853;DHT22;6495;51.808;7.478;2023-01-31T02:13:14;4.00;99.90
12853;DHT22;6495;51.808;7.478;2023-01-31T02:15:45;4.00;99.90
12853;DHT22;6495;51.808;7.478;2023-01-31T02:18:14;3.90;99.90
12853;DHT22;6495;51.808;7.478;2023-01-31T02:24:37;4.00;99.90
12853;DHT22;6495;51.808;7.478;2023-01-31T02:27:47;4.00;99.90
12853;DHT22;6495;51.808;7.478;2023-01-31T02:34:00;3.90;99.90
12853;DHT22;6495;51.808;7.478;2023-01-31T02:36:49;3.90;99.90
12853;DHT22;6495;51.808;7.478;2023-01-31T02:39:28;3.90;99.90
12853;DHT22;6495;51.808;7.478;2023-01-31T02:42:11;3.90;99.90
12853;DHT22;6495;51.808;7.478;2023-01-31T02:44:49;3.90;99.90
12853;DHT22;6495;51.808;7.478;2023-01-31T02:50:25;3.90;99.90
12853;DHT22;6495;51.808;7.478;2023-01-31T02:53:00;3.90;99.90
12853;DHT22;6495;51.808;7.478;2023-01-31T02:55:35;3.90;99.90
12853;DHT22;6495;51.808;7.478;2023-01-31T02:58:26;3.90;99.90
12853;DHT22;6495;51.808;7.478;2023-01-31T03:00:59;3.90;99.90
12853;DHT22;6495;51.808;7.478;2023-01-31T03:03:32;3.90;99.90
12853;DHT22;6495;51.808;7.478;2023-01-31T03:06:47;3.90;99.90
12853;DHT22;6495;51.808;7.478;2023-01-31T03:09:34;3.90;99.90
12853;DHT22;6495;51.808;7.478;2023-01-31T03:12:19;3.90;99.90
12853;DHT22;6495;51.808;7.478;2023-01-31T03:15:08;3.90;99.90
12853;DHT22;6495;51.808;7.478;2023-01-31T03:17:50;3.90;99.90
12853;DHT22;6495;51.808;7.478;2023-01-31T03:20:31;3.90;99.90
12853;DHT22;6495;51.808;7.478;2023-01-31T03:23:08;3.90;99.90
12853;DHT22;6495;51.808;7.478;2023-01-31T03:25:39;3.90;99.90
12853;DHT22;6495;51.808;7.478;2023-01-31T03:28:16;3.90;99.90
12853;DHT22;6495;51.808;7.478;2023-01-31T03:30:50;3.90;99.90
12853;DHT22;6495;51.808;7.478;2023-01-31T03:33:26;3.80;99.90
12853;DHT22;6495;51.808;7.478;2023-01-31T03:36:03;3.90;99.90
12853;DHT22;6495;51.808;7.478;2023-01-31T03:38:47;3.90;99.90
12853;DHT22;6495;51.808;7.478;2023-01-31T03:41:24;3.80;99.90
12853;DHT22;6495;51.808;7.478;2023-01-31T03:44:02;3.80;99.90
12853;DHT22;6495;51.808;7.478;2023-01-31T03:46:38;3.80;99.90
12853;DHT22;6495;51.808;7.478;2023-01-31T03:49:14;3.80;99.90
12853;DHT22;6495;51.808;7.478;2023-01-31T03:51:47;3.80;99.90
12853;DHT22;6495;51.808;7.478;2023-01-31T03:54:23;3.80;99.90
12853;DHT22;6495;51.808;7.478;2023-01-31T03:56:57;3.80;99.90
12853;DHT22;6495;51.808;7.478;2023-01-31T03:59:33;3.80;99.90
12853;DHT22;6495;51.808;7.478;2023-01-31T04:02:07;3.90;99.90
12853;DHT22;6495;51.808;7.478;2023-01-31T04:04:40;3.90;99.90
12853;DHT22;6495;51.808;7.478;2023-01-31T04:07:15;3.90;99.90
12853;DHT22;6495;51.808;7.478;2023-01-31T04:09:47;3.90;99.90
12853;DHT22;6495;51.808;7.478;2023-01-31T04:12:15;3.90;99.90
12853;DHT22;6495;51.808;7.478;2023-01-31T04:14:43;3.90;99.90
12853;DHT22;6495;51.808;7.478;2023-01-31T04:17:11;3.90;99.90
12853;DHT22;6495;51.808;7.478;2023-01-31T04:19:40;3.90;99.90
12853;DHT22;6495;51.808;7.478;2023-01-31T04:22:08;3.90;99.90
12853;DHT22;6495;51.808;7.478;2023-01-31T04:24:36;3.90;99.90
12853;DHT22;6495;51.808;7.478;2023-01-31T04:27:05;3.90;99.90
12853;DHT22;6495;51.808;7.478;2023-01-31T04:29:33;3.90;99.90
12853;DHT22;6495;51.808;7.478;2023-01-31T04:32:02;3.90;99.90
12853;DHT22;6495;51.808;7.478;2023-01-31T04:34:30;3.90;99.90
12853;DHT22;6495;51.808;7.478;2023-01-31T04:36:59;4.00;99.90
12853;DHT22;6495;51.808;7.478;2023-01-31T04:39:27;4.00;99.90
12853;DHT22;6495;51.808;7.478;2023-01-31T04:41:55;4.00;99.90
12853;DHT22;6495;51.808;7.478;2023-01-31T04:44:24;4.00;99.90
12853;DHT22;6495;51.808;7.478;2023-01-31T04:46:53;4.00;99.90
12853;DHT22;6495;51.808;7.478;2023-01-31T04:49:21;4.00;99.90
12853;DHT22;6495;51.808;7.478;2023-01-31T04:51:49;4.00;99.90
12853;DHT22;6495;51.808;7.478;2023-01-31T04:54:17;4.00;99.90
12853;DHT22;6495;51.808;7.478;2023-01-31T04:56:45;4.00;99.90
12853;DHT22;6495;51.808;7.478;2023-01-31T04:59:13;4.00;99.90
12853;DHT22;6495;51.808;7.478;2023-01-31T05:01:43;4.00;99.90
12853;DHT22;6495;51.808;7.478;2023-01-31T05:04:11;4.00;99.90
12853;DHT22;6495;51.808;7.478;2023-01-31T05:06:39;4.10;99.90
12853;DHT22;6495;51.808;7.478;2023-01-31T05:09:07;4.10;99.90
12853;DHT22;6495;51.808;7.478;2023-01-31T05:11:37;4.10;99.90
12853;DHT22;6495;51.808;7.478;2023-01-31T05:14:05;4.10;99.90
12853;DHT22;6495;51.808;7.478;2023-01-31T05:16:34;4.10;99.90
12853;DHT22;6495;51.808;7.478;2023-01-31T05:19:03;4.10;99.90
12853;DHT22;6495;51.808;7.478;2023-01-31T05:21:35;4.10;99.90
12853;DHT22;6495;51.808;7.478;2023-01-31T05:24:35;4.10;99.90
12853;DHT22;6495;51.808;7.478;2023-01-31T05:27:07;4.10;99.90
12853;DHT22;6495;51.808;7.478;2023-01-31T05:29:37;4.10;99.90
12853;DHT22;6495;51.808;7.478;2023-01-31T05:32:05;4.10;99.90
12853;DHT22;6495;51.808;7.478;2023-01-31T05:34:35;4.10;99.90
12853;DHT22;6495;51.808;7.478;2023-01-31T05:37:04;4.10;99.90
12853;DHT22;6495;51.808;7.478;2023-01-31T05:39:32;4.10;99.90
12853;DHT22;6495;51.808;7.478;2023-01-31T05:42:01;4.10;99.90
12853;DHT22;6495;51.808;7.478;2023-01-31T05:44:29;4.10;99.90
12853;DHT22;6495;51.808;7.478;2023-01-31T05:46:59;4.10;99.90
12853;DHT22;6495;51.808;7.478;2023-01-31T05:49:27;4.10;99.90
12853;DHT22;6495;51.808;7.478;2023-01-31T05:52:00;4.10;99.90
12853;DHT22;6495;51.808;7.478;2023-01-31T05:54:29;4.10;99.90
12853;DHT22;6495;51.808;7.478;2023-01-31T05:56:57;4.10;99.90
12853;DHT22;6495;51.808;7.478;2023-01-31T05:59:26;4.10;99.90
12853;DHT22;6495;51.808;7.478;2023-01-31T06:01:56;4.20;99.90
12853;DHT22;6495;51.808;7.478;2023-01-31T06:04:25;4.20;99.90
12853;DHT22;6495;51.808;7.478;2023-01-31T06:06:53;4.20;99.90
12853;DHT22;6495;51.808;7.478;2023-01-31T06:09:23;4.20;99.90
12853;DHT22;6495;51.808;7.478;2023-01-31T06:11:51;4.20;99.90
12853;DHT22;6495;51.808;7.478;2023-01-31T06:14:19;4.20;99.90
12853;DHT22;6495;51.808;7.478;2023-01-31T06:16:48;4.20;99.90
12853;DHT22;6495;51.808;7.478;2023-01-31T06:19:16;4.30;99.90
12853;DHT22;6495;51.808;7.478;2023-01-31T06:21:44;4.30;99.90
12853;DHT22;6495;51.808;7.478;2023-01-31T06:24:12;4.30;99.90
12853;DHT22;6495;51.808;7.478;2023-01-31T06:26:42;4.30;99.90
12853;DHT22;6495;51.808;7.478;2023-01-31T06:29:10;4.30;99.90
12853;DHT22;6495;51.808;7.478;2023-01-31T06:31:38;4.30;99.90
12853;DHT22;6495;51.808;7.478;2023-01-31T06:34:10;4.30;99.90
12853;DHT22;6495;51.808;7.478;2023-01-31T06:36:38;4.40;99.90
12853;DHT22;6495;51.808;7.478;2023-01-31T06:39:09;4.40;99.90
12853;DHT22;6495;51.808;7.478;2023-01-31T06:41:38;4.40;99.90
12853;DHT22;6495;51.808;7.478;2023-01-31T06:44:08;4.40;99.90
12853;DHT22;6495;51.808;7.478;2023-01-31T06:46:36;4.40;99.90
12853;DHT22;6495;51.808;7.478;2023-01-31T06:49:05;4.40;99.90
12853;DHT22;6495;51.808;7.478;2023-01-31T06:51:33;4.40;99.90
12853;DHT22;6495;51.808;7.478;2023-01-31T06:54:01;4.40;99.90
12853;DHT22;6495;51.808;7.478;2023-01-31T06:56:30;4.40;99.90
12853;DHT22;6495;51.808;7.478;2023-01-31T06:58:58;4.50;99.90
12853;DHT22;6495;51.808;7.478;2023-01-31T07:01:28;4.40;99.90
12853;DHT22;6495;51.808;7.478;2023-01-31T07:03:56;4.50;99.90
12853;DHT22;6495;51.808;7.478;2023-01-31T07:06:24;4.50;99.90
12853;DHT22;6495;51.808;7.478;2023-01-31T07:08:53;4.50;99.90
12853;DHT22;6495;51.808;7.478;2023-01-31T07:11:21;4.50;99.90
12853;DHT22;6495;51.808;7.478;2023-01-31T07:13:50;4.50;99.90
12853;DHT22;6495;51.808;7.478;2023-01-31T07:16:19;4.50;99.90
12853;DHT22;6495;51.808;7.478;2023-01-31T07:18:52;4.50;99.90
12853;DHT22;6495;51.808;7.478;2023-01-31T07:21:23;4.50;99.90
12853;DHT22;6495;51.808;7.478;2023-01-31T07:23:52;4.50;99.90
12853;DHT22;6495;51.808;7.478;2023-01-31T07:26:20;4.50;99.90
12853;DHT22;6495;51.808;7.478;2023-01-31T07:28:48;4.50;99.90
12853;DHT22;6495;51.808;7.478;2023-01-31T07:31:17;4.50;99.90
12853;DHT22;6495;51.808;7.478;2023-01-31T07:33:47;4.50;99.90
12853;DHT22;6495;51.808;7.478;2023-01-31T07:36:17;4.60;99.90
12853;DHT22;6495;51.808;7.478;2023-01-31T07:38:53;4.60;99.90
12853;DHT22;6495;51.808;7.478;2023-01-31T07:41:23;4.60;99.90
12853;DHT22;6495;51.808;7.478;2023-01-31T07:43:51;4.60;99.90
12853;DHT22;6495;51.808;7.478;2023-01-31T07:46:20;4.60;99.90
12853;DHT22;6495;51.808;7.478;2023-01-31T07:48:48;4.60;99.90
12853;DHT22;6495;51.808;7.478;2023-01-31T07:51:18;4.60;99.90
12853;DHT22;6495;51.808;7.478;2023-01-31T07:53:46;4.60;99.90
12853;DHT22;6495;51.808;7.478;2023-01-31T07:56:16;4.70;99.90
12853;DHT22;6495;51.808;7.478;2023-01-31T07:58:47;4.70;99.90
12853;DHT22;6495;51.808;7.478;2023-01-31T08:01:18;4.70;99.90
12853;DHT22;6495;51.808;7.478;2023-01-31T08:04:06;4.70;99.90
12853;DHT22;6495;51.808;7.478;2023-01-31T08:06:51;4.70;99.90
12853;DHT22;6495;51.808;7.478;2023-01-31T08:09:21;4.70;99.90
12853;DHT22;6495;51.808;7.478;2023-01-31T08:11:50;4.70;99.90
12853;DHT22;6495;51.808;7.478;2023-01-31T08:14:19;4.70;99.90
12853;DHT22;6495;51.808;7.478;2023-01-31T08:16:51;4.70;99.90
12853;DHT22;6495;51.808;7.478;2023-01-31T08:19:20;4.80;99.90
12853;DHT22;6495;51.808;7.478;2023-01-31T08:21:50;4.80;99.90
12853;DHT22;6495;51.808;7.478;2023-01-31T08:24:18;4.80;99.90
12853;DHT22;6495;51.808;7.478;2023-01-31T08:26:46;4.80;99.90
12853;DHT22;6495;51.808;7.478;2023-01-31T08:29:15;4.80;99.90
12853;DHT22;6495;51.808;7.478;2023-01-31T08:31:43;4.80;99.90
12853;DHT22;6495;51.808;7.478;2023-01-31T08:34:12;4.80;99.90
12853;DHT22;6495;51.808;7.478;2023-01-31T08:36:40;4.90;99.90
12853;DHT22;6495;51.808;7.478;2023-01-31T08:39:11;4.90;99.90
12853;DHT22;6495;51.808;7.478;2023-01-31T08:41:39;4.80;99.90
12853;DHT22;6495;51.808;7.478;2023-01-31T08:44:10;4.90;99.90
12853;DHT22;6495;51.808;7.478;2023-01-31T08:46:39;4.90;99.90
12853;DHT22;6495;51.808;7.478;2023-01-31T08:49:08;4.90;99.90
12853;DHT22;6495;51.808;7.478;2023-01-31T08:51:37;4.90;99.90
12853;DHT22;6495;51.808;7.478;2023-01-31T08:54:05;4.90;99.90
12853;DHT22;6495;51.808;7.478;2023-01-31T08:56:37;4.90;99.90
12853;DHT22;6495;51.808;7.478;2023-01-31T08:59:05;4.90;99.90
12853;DHT22;6495;51.808;7.478;2023-01-31T09:01:34;4.90;99.90
12853;DHT22;6495;51.808;7.478;2023-01-31T09:04:02;4.90;99.90
12853;DHT22;6495;51.808;7.478;2023-01-31T09:06:30;4.90;99.90
12853;DHT22;6495;51.808;7.478;2023-01-31T09:08:59;4.90;99.90
12853;DHT22;6495;51.808;7.478;2023-01-31T09:11:28;4.90;99.90
12853;DHT22;6495;51.808;7.478;2023-01-31T09:13:59;4.90;99.90
12853;DHT22;6495;51.808;7.478;2023-01-31T09:16:27;5.00;99.90
12853;DHT22;6495;51.808;7.478;2023-01-31T09:18:55;5.00;99.90
12853;DHT22;6495;51.808;7.478;2023-01-31T09:21:24;5.00;99.90
12853;DHT22;6495;51.808;7.478;2023-01-31T09:23:57;5.00;99.90
12853;DHT22;6495;51.808;7.478;2023-01-31T09:26:28;5.10;99.90
12853;DHT22;6495;51.808;7.478;2023-01-31T09:28:58;5.10;99.90
12853;DHT22;6495;51.808;7.478;2023-01-31T09:31:28;5.10;99.90
12853;DHT22;6495;51.808;7.478;2023-01-31T09:33:57;5.10;99.90
12853;DHT22;6495;51.808;7.478;2023-01-31T09:36:25;5.10;99.90
12853;DHT22;6495;51.808;7.478;2023-01-31T09:38:55;5.10;99.90
12853;DHT22;6495;51.808;7.478;2023-01-31T09:41:27;5.20;99.90
12853;DHT22;6495;51.808;7.478;2023-01-31T09:44:04;5.20;99.90
12853;DHT22;6495;51.808;7.478;2023-01-31T09:46:40;5.20;99.90
12853;DHT22;6495;51.808;7.478;2023-01-31T09:49:17;5.20;99.90
12853;DHT22;6495;51.808;7.478;2023-01-31T09:51:52;5.30;99.90
12853;DHT22;6495;51.808;7.478;2023-01-31T09:54:27;5.30;99.90
12853;DHT22;6495;51.808;7.478;2023-01-31T09:57:12;5.30;99.90
12853;DHT22;6495;51.808;7.478;2023-01-31T09:59:53;5.30;99.90
12853;DHT22;6495;51.808;7.478;2023-01-31T10:02:48;5.30;99.90
12853;DHT22;6495;51.808;7.478;2023-01-31T10:05:35;5.30;99.90
12853;DHT22;6495;51.808;7.478;2023-01-31T10:08:14;5.30;99.90
12853;DHT22;6495;51.808;7.478;2023-01-31T10:10:49;5.30;99.90
12853;DHT22;6495;51.808;7.478;2023-01-31T10:13:23;5.30;99.90
12853;DHT22;6495;51.808;7.478;2023-01-31T10:16:03;5.30;99.90
12853;DHT22;6495;51.808;7.478;2023-01-31T10:18:42;5.30;99.90
12853;DHT22;6495;51.808;7.478;2023-01-31T10:21:17;5.30;99.90
12853;DHT22;6495;51.808;7.478;2023-01-31T10:23:55;5.40;99.90
12853;DHT22;6495;51.808;7.478;2023-01-31T10:26:29;5.40;99.90
12853;DHT22;6495;51.808;7.478;2023-01-31T10:29:03;5.40;99.90
12853;DHT22;6495;51.808;7.478;2023-01-31T10:31:43;5.40;99.90
12853;DHT22;6495;51.808;7.478;2023-01-31T10:34:20;5.40;99.90
12853;DHT22;6495;51.808;7.478;2023-01-31T10:36:57;5.40;99.90
12853;DHT22;6495;51.808;7.478;2023-01-31T10:39:31;5.40;99.90
12853;DHT22;6495;51.808;7.478;2023-01-31T10:42:11;5.40;99.90
12853;DHT22;6495;51.808;7.478;2023-01-31T10:44:50;5.40;99.90
12853;DHT22;6495;51.808;7.478;2023-01-31T10:47:29;5.40;99.90
12853;DHT22;6495;51.808;7.478;2023-01-31T10:50:01;5.40;99.90
12853;DHT22;6495;51.808;7.478;2023-01-31T10:52:49;5.50;99.90
12853;DHT22;6495;51.808;7.478;2023-01-31T10:55:38;5.50;99.90
12853;DHT22;6495;51.808;7.478;2023-01-31T10:58:17;5.50;99.90
12853;DHT22;6495;51.808;7.478;2023-01-31T11:00:48;5.50;99.90
12853;DHT22;6495;51.808;7.478;2023-01-31T11:03:18;5.50;99.90
12853;DHT22;6495;51.808;7.478;2023-01-31T11:05:48;5.50;99.90
12853;DHT22;6495;51.808;7.478;2023-01-31T11:08:30;5.50;99.90
12853;DHT22;6495;51.808;7.478;2023-01-31T11:11:07;5.50;99.90
12853;DHT22;6495;51.808;7.478;2023-01-31T11:13:38;5.50;99.90
12853;DHT22;6495;51.808;7.478;2023-01-31T11:16:09;5.50;99.90
12853;DHT22;6495;51.808;7.478;2023-01-31T11:18:45;5.50;99.90
12853;DHT22;6495;51.808;7.478;2023-01-31T11:21:20;5.50;99.90
12853;DHT22;6495;51.808;7.478;2023-01-31T11:23:54;5.50;99.90
12853;DHT22;6495;51.808;7.478;2023-01-31T11:26:30;5.60;99.90
12853;DHT22;6495;51.808;7.478;2023-01-31T11:29:02;5.60;99.90
12853;DHT22;6495;51.808;7.478;2023-01-31T11:31:40;5.60;99.90
12853;DHT22;6495;51.808;7.478;2023-01-31T11:34:21;5.60;99.90
12853;DHT22;6495;51.808;7.478;2023-01-31T11:36:50;5.60;99.90
12853;DHT22;6495;51.808;7.478;2023-01-31T11:39:28;5.60;99.90
12853;DHT22;6495;51.808;7.478;2023-01-31T11:42:05;5.60;99.90
12853;DHT22;6495;51.808;7.478;2023-01-31T11:44:34;5.70;99.90
12853;DHT22;6495;51.808;7.478;2023-01-31T11:47:04;5.70;99.90
12853;DHT22;6495;51.808;7.478;2023-01-31T11:49:42;5.70;99.90
12853;DHT22;6495;51.808;7.478;2023-01-31T11:52:14;5.70;99.90
12853;DHT22;6495;51.808;7.478;2023-01-31T11:54:47;5.70;99.90
12853;DHT22;6495;51.808;7.478;2023-01-31T11:57:22;5.80;99.90
12853;DHT22;6495;51.808;7.478;2023-01-31T11:59:54;5.80;99.90
12853;DHT22;6495;51.808;7.478;2023-01-31T12:02:31;5.80;99.90
12853;DHT22;6495;51.808;7.478;2023-01-31T12:05:13;5.80;99.90
12853;DHT22;6495;51.808;7.478;2023-01-31T12:07:45;5.80;99.90
12853;DHT22;6495;51.808;7.478;2023-01-31T12:10:26;5.80;99.90
12853;DHT22;6495;51.808;7.478;2023-01-31T12:13:00;5.90;99.90
12853;DHT22;6495;51.808;7.478;2023-01-31T12:15:47;5.90;99.90
12853;DHT22;6495;51.808;7.478;2023-01-31T12:18:34;5.90;99.90
12853;DHT22;6495;51.808;7.478;2023-01-31T12:21:15;5.90;99.90
12853;DHT22;6495;51.808;7.478;2023-01-31T12:23:58;5.90;99.90
12853;DHT22;6495;51.808;7.478;2023-01-31T12:26:44;5.90;99.90
12853;DHT22;6495;51.808;7.478;2023-01-31T12:29:32;6.00;99.90
12853;DHT22;6495;51.808;7.478;2023-01-31T12:32:26;6.00;99.90
12853;DHT22;6495;51.808;7.478;2023-01-31T12:35:31;6.00;99.90
12853;DHT22;6495;51.808;7.478;2023-01-31T12:38:17;6.00;99.90
12853;DHT22;6495;51.808;7.478;2023-01-31T12:41:06;6.00;99.90
12853;DHT22;6495;51.808;7.478;2023-01-31T12:43:58;6.10;99.90
12853;DHT22;6495;51.808;7.478;2023-01-31T12:46:49;6.10;99.90
12853;DHT22;6495;51.808;7.478;2023-01-31T12:52:55;6.10;99.90
12853;DHT22;6495;51.808;7.478;2023-01-31T12:55:43;6.10;99.90
12853;DHT22;6495;51.808;7.478;2023-01-31T12:58:31;6.10;99.90
12853;DHT22;6495;51.808;7.478;2023-01-31T13:01:11;6.10;99.90
12853;DHT22;6495;51.808;7.478;2023-01-31T13:03:54;6.10;99.90
12853;DHT22;6495;51.808;7.478;2023-01-31T13:06:36;6.10;99.90
12853;DHT22;6495;51.808;7.478;2023-01-31T13:09:11;6.10;99.90
12853;DHT22;6495;51.808;7.478;2023-01-31T13:11:50;6.10;99.90
12853;DHT22;6495;51.808;7.478;2023-01-31T13:14:24;6.10;99.90
12853;DHT22;6495;51.808;7.478;2023-01-31T13:16:57;6.10;99.90
12853;DHT22;6495;51.808;7.478;2023-01-31T13:19:34;6.10;99.90
12853;DHT22;6495;51.808;7.478;2023-01-31T13:22:12;6.20;99.90
12853;DHT22;6495;51.808;7.478;2023-01-31T13:24:48;6.20;99.90
12853;DHT22;6495;51.808;7.478;2023-01-31T13:27:28;6.20;99.90
12853;DHT22;6495;51.808;7.478;2023-01-31T13:30:02;6.20;99.90
12853;DHT22;6495;51.808;7.478;2023-01-31T13:32:41;6.20;99.90
12853;DHT22;6495;51.808;7.478;2023-01-31T13:35:15;6.20;99.90
12853;DHT22;6495;51.808;7.478;2023-01-31T13:37:56;6.20;99.90
12853;DHT22;6495;51.808;7.478;2023-01-31T13:40:28;6.20;99.90
12853;DHT22;6495;51.808;7.478;2023-01-31T13:43:11;6.20;99.90
12853;DHT22;6495;51.808;7.478;2023-01-31T13:45:43;6.20;99.90
12853;DHT22;6495;51.808;7.478;2023-01-31T13:48:24;6.20;99.90
12853;DHT22;6495;51.808;7.478;2023-01-31T13:50:59;6.20;99.90
12853;DHT22;6495;51.808;7.478;2023-01-31T13:53:42;6.20;99.90
12853;DHT22;6495;51.808;7.478;2023-01-31T13:56:20;6.20;99.90
12853;DHT22;6495;51.808;7.478;2023-01-31T13:58:54;6.20;99.90
12853;DHT22;6495;51.808;7.478;2023-01-31T14:01:24;6.20;99.90
12853;DHT22;6495;51.808;7.478;2023-01-31T14:07:21;6.30;99.90
12853;DHT22;6495;51.808;7.478;2023-01-31T14:10:25;6.30;99.90
12853;DHT22;6495;51.808;7.478;2023-01-31T14:16:35;6.30;99.90
12853;DHT22;6495;51.808;7.478;2023-01-31T14:22:35;6.30;99.90
12853;DHT22;6495;51.808;7.478;2023-01-31T14:25:14;6.30;99.90
12853;DHT22;6495;51.808;7.478;2023-01-31T14:27:45;6.30;99.90
12853;DHT22;6495;51.808;7.478;2023-01-31T14:30:35;6.30;99.90
12853;DHT22;6495;51.808;7.478;2023-01-31T14:33:16;6.30;99.90
12853;DHT22;6495;51.808;7.478;2023-01-31T14:36:06;6.30;99.90
12853;DHT22;6495;51.808;7.478;2023-01-31T14:45:39;6.30;99.90
12853;DHT22;6495;51.808;7.478;2023-01-31T14:48:35;6.30;99.90
12853;DHT22;6495;51.808;7.478;2023-01-31T14:51:22;6.30;99.90
12853;DHT22;6495;51.808;7.478;2023-01-31T14:54:19;6.30;99.90
12853;DHT22;6495;51.808;7.478;2023-01-31T14:57:10;6.40;99.90
12853;DHT22;6495;51.808;7.478;2023-01-31T14:59:52;6.40;99.90
12853;DHT22;6495;51.808;7.478;2023-01-31T15:02:43;6.40;99.90
12853;DHT22;6495;51.808;7.478;2023-01-31T15:05:18;6.40;99.90
12853;DHT22;6495;51.808;7.478;2023-01-31T15:08:05;6.40;99.90
12853;DHT22;6495;51.808;7.478;2023-01-31T15:10:58;6.40;99.90
12853;DHT22;6495;51.808;7.478;2023-01-31T15:16:20;6.40;99.90
12853;DHT22;6495;51.808;7.478;2023-01-31T15:18:59;6.40;99.90
12853;DHT22;6495;51.808;7.478;2023-01-31T15:21:40;6.50;99.90
12853;DHT22;6495;51.808;7.478;2023-01-31T15:24:17;6.50;99.90
12853;DHT22;6495;51.808;7.478;2023-01-31T15:26:48;6.50;99.90
12853;DHT22;6495;51.808;7.478;2023-01-31T15:29:23;6.50;99.90
12853;DHT22;6495;51.808;7.478;2023-01-31T15:31:56;6.50;99.90
12853;DHT22;6495;51.808;7.478;2023-01-31T15:34:34;6.50;99.90
12853;DHT22;6495;51.808;7.478;2023-01-31T15:37:16;6.50;99.90
12853;DHT22;6495;51.808;7.478;2023-01-31T15:39:53;6.50;99.90
12853;DHT22;6495;51.808;7.478;2023-01-31T15:42:26;6.60;99.90
12853;DHT22;6495;51.808;7.478;2023-01-31T15:45:21;6.60;99.90
12853;DHT22;6495;51.808;7.478;2023-01-31T15:47:58;6.60;99.90
12853;DHT22;6495;51.808;7.478;2023-01-31T15:50:30;6.60;99.90
12853;DHT22;6495;51.808;7.478;2023-01-31T15:53:06;6.60;99.90
12853;DHT22;6495;51.808;7.478;2023-01-31T15:55:41;6.60;99.90
12853;DHT22;6495;51.808;7.478;2023-01-31T15:58:17;6.60;99.90
12853;DHT22;6495;51.808;7.478;2023-01-31T16:00:49;6.70;99.90
12853;DHT22;6495;51.808;7.478;2023-01-31T16:03:21;6.70;99.90
12853;DHT22;6495;51.808;7.478;2023-01-31T16:05:53;6.70;99.90
12853;DHT22;6495;51.808;7.478;2023-01-31T16:08:28;6.70;99.90
12853;DHT22;6495;51.808;7.478;2023-01-31T16:11:01;6.70;99.90
12853;DHT22;6495;51.808;7.478;2023-01-31T16:13:33;6.70;99.90
12853;DHT22;6495;51.808;7.478;2023-01-31T16:16:05;6.70;99.90
12853;DHT22;6495;51.808;7.478;2023-01-31T16:18:36;6.70;99.90
12853;DHT22;6495;51.808;7.478;2023-01-31T16:21:12;6.80;99.90
12853;DHT22;6495;51.808;7.478;2023-01-31T16:23:44;6.80;99.90
12853;DHT22;6495;51.808;7.478;2023-01-31T16:26:14;6.80;99.90
12853;DHT22;6495;51.808;7.478;2023-01-31T16:28:50;6.80;99.90
12853;DHT22;6495;51.808;7.478;2023-01-31T16:31:24;6.80;99.90
12853;DHT22;6495;51.808;7.478;2023-01-31T16:33:55;6.80;99.90
12853;DHT22;6495;51.808;7.478;2023-01-31T16:36:29;6.80;99.90
12853;DHT22;6495;51.808;7.478;2023-01-31T16:39:02;6.80;99.90
12853;DHT22;6495;51.808;7.478;2023-01-31T16:41:45;6.80;99.90
12853;DHT22;6495;51.808;7.478;2023-01-31T16:44:18;6.80;99.90
12853;DHT22;6495;51.808;7.478;2023-01-31T16:46:49;6.80;99.90
12853;DHT22;6495;51.808;7.478;2023-01-31T16:49:21;6.80;99.90
12853;DHT22;6495;51.808;7.478;2023-01-31T16:51:55;6.80;99.90
12853;DHT22;6495;51.808;7.478;2023-01-31T16:54:27;6.90;99.90
12853;DHT22;6495;51.808;7.478;2023-01-31T16:57:06;6.90;99.90
12853;DHT22;6495;51.808;7.478;2023-01-31T16:59:48;6.90;99.90
12853;DHT22;6495;51.808;7.478;2023-01-31T17:02:21;6.90;99.90
12853;DHT22;6495;51.808;7.478;2023-01-31T17:04:54;6.90;99.90
12853;DHT22;6495;51.808;7.478;2023-01-31T17:07:26;6.90;99.90
12853;DHT22;6495;51.808;7.478;2023-01-31T17:10:00;6.90;99.90
12853;DHT22;6495;51.808;7.478;2023-01-31T17:12:32;6.90;99.90
12853;DHT22;6495;51.808;7.478;2023-01-31T17:15:11;6.90;99.90
12853;DHT22;6495;51.808;7.478;2023-01-31T17:17:41;7.00;99.90
12853;DHT22;6495;51.808;7.478;2023-01-31T17:20:13;7.00;99.90
12853;DHT22;6495;51.808;7.478;2023-01-31T17:22:42;7.00;99.90